sensor_id;sensor_type;location;lat;lon;timestamp;pressure;altitude;pressure_sealevel;temperature;humidity
8398;BME280;4236;54.504;9.588;2024-01-10T00:00:05;103603.91;;;-2.99;100.00
8398;BME280;4236;54.504;9.588;2024-01-10T00:02:34;103600.44;;;-2.99;100.00
8398;BME280;4236;54.504;9.588;2024-01-10T00:05:02;103590.94;;;-3.02;100.00
8398;BME280;4236;54.504;9.588;2024-01-10T00:07:30;103595.38;;;-3.05;100.00
8398;BME280;4236;54.504;9.588;2024-01-10T00:09:58;103598.94;;;-3.09;100.00
8398;BME280;4236;54.504;9.588;2024-01-10T00:12:28;103589.44;;;-3.12;100.00
8398;BME280;4236;54.504;9.588;2024-01-10T00:15:00;103599.97;;;-3.15;100.00
8398;BME280;4236;54.504;9.588;2024-01-10T00:17:27;103593.09;;;-3.19;100.00
8398;BME280;4236;54.504;9.588;2024-01-10T00:19:56;103582.75;;;-3.22;100.00
8398;BME280;4236;54.504;9.588;2024-01-10T00:22:24;103580.25;;;-3.26;100.00
8398;BME280;4236;54.504;9.588;2024-01-10T00:24:52;103579.47;;;-3.30;100.00
8398;BME280;4236;54.504;9.588;2024-01-10T00:27:20;103583.09;;;-3.36;100.00
8398;BME280;4236;54.504;9.588;2024-01-10T00:29:48;103576.22;;;-3.40;100.00
8398;BME280;4236;54.504;9.588;2024-01-10T00:32:17;103577.22;;;-3.44;100.00
8398;BME280;4236;54.504;9.588;2024-01-10T00:34:45;103576.38;;;-3.46;100.00
8398;BME280;4236;54.504;9.588;2024-01-10T00:37:14;103572.09;;;-3.47;100.00
8398;BME280;4236;54.504;9.588;2024-01-10T00:39:42;103571.25;;;-3.49;100.00
8398;BME280;4236;54.504;9.588;2024-01-10T00:42:10;103571.38;;;-3.53;100.00
8398;BME280;4236;54.504;9.588;2024-01-10T00:44:37;103568.00;;;-3.58;100.00
8398;BME280;4236;54.504;9.588;2024-01-10T00:47:05;103563.78;;;-3.64;100.00
8398;BME280;4236;54.504;9.588;2024-01-10T00:49:33;103561.25;;;-3.67;100.00
8398;BME280;4236;54.504;9.588;2024-01-10T00:52:02;103562.25;;;-3.72;100.00
8398;BME280;4236;54.504;9.588;2024-01-10T00:54:32;103577.16;;;-3.77;100.00
8398;BME280;4236;54.504;9.588;2024-01-10T00:56:59;103563.34;;;-3.81;100.00
8398;BME280;4236;54.504;9.588;2024-01-10T00:59:27;103572.09;;;-3.83;100.00
8398;BME280;4236;54.504;9.588;2024-01-10T01:01:55;103575.56;;;-3.83;100.00
8398;BME280;4236;54.504;9.588;2024-01-10T01:04:22;103566.06;;;-3.85;100.00
8398;BME280;4236;54.504;9.588;2024-01-10T01:06:50;103569.47;;;-3.83;100.00
8398;BME280;4236;54.504;9.588;2024-01-10T01:09:18;103563.31;;;-3.79;100.00
8398;BME280;4236;54.504;9.588;2024-01-10T01:11:47;103559.78;;;-3.77;100.00
8398;BME280;4236;54.504;9.588;2024-01-10T01:14:15;103554.50;;;-3.75;100.00
8398;BME280;4236;54.504;9.588;2024-01-10T01:16:43;103556.22;;;-3.74;100.00
8398;BME280;4236;54.504;9.588;2024-01-10T01:19:10;103558.88;;;-3.76;100.00
8398;BME280;4236;54.504;9.588;2024-01-10T01:21:38;103552.84;;;-3.78;100.00
8398;BME280;4236;54.504;9.588;2024-01-10T01:24:06;103557.19;;;-3.78;100.00
8398;BME280;4236;54.504;9.588;2024-01-10T01:26:33;103547.69;;;-3.81;100.00
8398;BME280;4236;54.504;9.588;2024-01-10T01:29:02;103547.75;;;-3.82;100.00
8398;BME280;4236;54.504;9.588;2024-01-10T01:31:31;103542.69;;;-3.90;100.00
8398;BME280;4236;54.504;9.588;2024-01-10T01:33:58;103550.66;;;-3.96;100.00
8398;BME280;4236;54.504;9.588;2024-01-10T01:36:26;103550.72;;;-3.99;100.00
8398;BME280;4236;54.504;9.588;2024-01-10T01:38:54;103544.78;;;-4.04;100.00
8398;BME280;4236;54.504;9.588;2024-01-10T01:41:22;103539.56;;;-4.06;100.00
8398;BME280;4236;54.504;9.588;2024-01-10T01:43:50;103536.97;;;-4.06;100.00
8398;BME280;4236;54.504;9.588;2024-01-10T01:46:19;103545.78;;;-4.11;100.00
8398;BME280;4236;54.504;9.588;2024-01-10T01:48:47;103543.31;;;-4.16;100.00
8398;BME280;4236;54.504;9.588;2024-01-10T01:51:19;103540.84;;;-4.22;100.00
8398;BME280;4236;54.504;9.588;2024-01-10T01:53:48;103539.25;;;-4.29;100.00
8398;BME280;4236;54.504;9.588;2024-01-10T01:56:17;103538.50;;;-4.35;100.00
8398;BME280;4236;54.504;9.588;2024-01-10T01:58:45;103533.44;;;-4.41;100.00
8398;BME280;4236;54.504;9.588;2024-01-10T02:01:14;103524.84;;;-4.45;100.00
8398;BME280;4236;54.504;9.588;2024-01-10T02:03:44;103528.41;;;-4.51;100.00
8398;BME280;4236;54.504;9.588;2024-01-10T02:06:12;103532.00;;;-4.56;100.00
8398;BME280;4236;54.504;9.588;2024-01-10T02:08:40;103539.88;;;-4.59;100.00
8398;BME280;4236;54.504;9.588;2024-01-10T02:11:08;103532.19;;;-4.64;100.00
8398;BME280;4236;54.504;9.588;2024-01-10T02:13:36;103529.66;;;-4.68;100.00
8398;BME280;4236;54.504;9.588;2024-01-10T02:16:04;103534.06;;;-4.72;100.00
8398;BME280;4236;54.504;9.588;2024-01-10T02:18:34;103524.63;;;-4.76;100.00
8398;BME280;4236;54.504;9.588;2024-01-10T02:21:04;103533.34;;;-4.78;100.00
8398;BME280;4236;54.504;9.588;2024-01-10T02:23:31;103523.00;;;-4.81;100.00
8398;BME280;4236;54.504;9.588;2024-01-10T02:26:01;103529.13;;;-4.84;100.00
8398;BME280;4236;54.504;9.588;2024-01-10T02:28:28;103528.34;;;-4.89;100.00
8398;BME280;4236;54.504;9.588;2024-01-10T02:30:57;103521.44;;;-4.91;100.00
8398;BME280;4236;54.504;9.588;2024-01-10T02:33:25;103519.78;;;-4.94;100.00
8398;BME280;4236;54.504;9.588;2024-01-10T02:35:52;103525.91;;;-4.96;100.00
8398;BME280;4236;54.504;9.588;2024-01-10T02:38:20;103520.75;;;-4.99;100.00
8398;BME280;4236;54.504;9.588;2024-01-10T02:40:50;103515.56;;;-4.99;100.00
8398;BME280;4236;54.504;9.588;2024-01-10T02:43:19;103513.88;;;-5.04;100.00
8398;BME280;4236;54.504;9.588;2024-01-10T02:45:48;103512.16;;;-5.05;100.00
8398;BME280;4236;54.504;9.588;2024-01-10T02:48:16;103527.81;;;-5.08;100.00
8398;BME280;4236;54.504;9.588;2024-01-10T02:50:43;103523.53;;;-5.09;100.00
8398;BME280;4236;54.504;9.588;2024-01-10T02:53:11;103533.06;;;-5.09;100.00
8398;BME280;4236;54.504;9.588;2024-01-10T02:55:39;103524.50;;;-5.14;100.00
8398;BME280;4236;54.504;9.588;2024-01-10T02:58:08;103540.13;;;-5.14;100.00
8398;BME280;4236;54.504;9.588;2024-01-10T03:00:37;103533.25;;;-5.18;100.00
8398;BME280;4236;54.504;9.588;2024-01-10T03:03:05;103540.22;;;-5.20;100.00
8398;BME280;4236;54.504;9.588;2024-01-10T03:05:33;103536.81;;;-5.25;100.00
8398;BME280;4236;54.504;9.588;2024-01-10T03:08:00;103542.88;;;-5.25;100.00
8398;BME280;4236;54.504;9.588;2024-01-10T03:10:28;103535.13;;;-5.28;100.00
8398;BME280;4236;54.504;9.588;2024-01-10T03:12:56;103534.34;;;-5.31;100.00
8398;BME280;4236;54.504;9.588;2024-01-10T03:15:24;103543.91;;;-5.33;100.00
8398;BME280;4236;54.504;9.588;2024-01-10T03:17:54;103530.97;;;-5.35;100.00
8398;BME280;4236;54.504;9.588;2024-01-10T03:20:22;103529.28;;;-5.39;100.00
8398;BME280;4236;54.504;9.588;2024-01-10T03:22:50;103538.88;;;-5.41;100.00
8398;BME280;4236;54.504;9.588;2024-01-10T03:25:18;103535.41;;;-5.41;100.00
8398;BME280;4236;54.504;9.588;2024-01-10T03:27:45;103529.34;;;-5.42;100.00
8398;BME280;4236;54.504;9.588;2024-01-10T03:30:13;103539.69;;;-5.40;100.00
8398;BME280;4236;54.504;9.588;2024-01-10T03:32:41;103538.81;;;-5.39;100.00
8398;BME280;4236;54.504;9.588;2024-01-10T03:35:10;103536.16;;;-5.35;100.00
8398;BME280;4236;54.504;9.588;2024-01-10T03:37:38;103538.66;;;-5.30;100.00
8398;BME280;4236;54.504;9.588;2024-01-10T03:40:07;103533.44;;;-5.29;100.00
8398;BME280;4236;54.504;9.588;2024-01-10T03:42:35;103529.06;;;-5.28;100.00
8398;BME280;4236;54.504;9.588;2024-01-10T03:45:03;103535.09;;;-5.25;100.00
8398;BME280;4236;54.504;9.588;2024-01-10T03:47:31;103530.75;;;-5.23;100.00
8398;BME280;4236;54.504;9.588;2024-01-10T03:49:58;103532.47;;;-5.23;100.00
8398;BME280;4236;54.504;9.588;2024-01-10T03:52:28;103531.63;;;-5.24;100.00
8398;BME280;4236;54.504;9.588;2024-01-10T03:54:56;103530.78;;;-5.26;100.00
8398;BME280;4236;54.504;9.588;2024-01-10T03:57:24;103530.75;;;-5.24;100.00
8398;BME280;4236;54.504;9.588;2024-01-10T03:59:52;103532.50;;;-5.25;100.00
8398;BME280;4236;54.504;9.588;2024-01-10T04:02:19;103530.69;;;-5.21;100.00
8398;BME280;4236;54.504;9.588;2024-01-10T04:04:48;103533.28;;;-5.20;100.00
8398;BME280;4236;54.504;9.588;2024-01-10T04:07:16;103530.59;;;-5.15;100.00
8398;BME280;4236;54.504;9.588;2024-01-10T04:09:45;103543.50;;;-5.11;100.00
8398;BME280;4236;54.504;9.588;2024-01-10T04:12:13;103542.53;;;-5.05;100.00
8398;BME280;4236;54.504;9.588;2024-01-10T04:14:40;103551.91;;;-4.96;100.00
8398;BME280;4236;54.504;9.588;2024-01-10T04:17:08;103537.06;;;-4.90;100.00
8398;BME280;4236;54.504;9.588;2024-01-10T04:19:36;103541.22;;;-4.81;100.00
8398;BME280;4236;54.504;9.588;2024-01-10T04:22:04;103541.81;;;-4.69;100.00
8398;BME280;4236;54.504;9.588;2024-01-10T04:24:31;103540.72;;;-4.57;100.00
8398;BME280;4236;54.504;9.588;2024-01-10T04:27:01;103537.03;;;-4.47;100.00
8398;BME280;4236;54.504;9.588;2024-01-10T04:29:28;103543.78;;;-4.38;100.00
8398;BME280;4236;54.504;9.588;2024-01-10T04:31:56;103541.03;;;-4.32;100.00
8398;BME280;4236;54.504;9.588;2024-01-10T04:34:24;103547.03;;;-4.27;100.00
8398;BME280;4236;54.504;9.588;2024-01-10T04:36:52;103551.25;;;-4.22;100.00
8398;BME280;4236;54.504;9.588;2024-01-10T04:39:20;103547.72;;;-4.19;100.00
8398;BME280;4236;54.504;9.588;2024-01-10T04:41:48;103542.50;;;-4.19;100.00
8398;BME280;4236;54.504;9.588;2024-01-10T04:44:17;103542.50;;;-4.19;100.00
8398;BME280;4236;54.504;9.588;2024-01-10T04:46:45;103541.66;;;-4.20;100.00
8398;BME280;4236;54.504;9.588;2024-01-10T04:49:12;103541.66;;;-4.20;100.00
8398;BME280;4236;54.504;9.588;2024-01-10T04:51:40;103542.53;;;-4.21;100.00
8398;BME280;4236;54.504;9.588;2024-01-10T04:54:09;103537.28;;;-4.19;100.00
8398;BME280;4236;54.504;9.588;2024-01-10T04:56:38;103535.50;;;-4.17;100.00
8398;BME280;4236;54.504;9.588;2024-01-10T04:59:05;103538.94;;;-4.15;100.00
8398;BME280;4236;54.504;9.588;2024-01-10T05:01:35;103538.03;;;-4.13;100.00
8398;BME280;4236;54.504;9.588;2024-01-10T05:04:03;103536.22;;;-4.09;100.00
8398;BME280;4236;54.504;9.588;2024-01-10T05:06:31;103532.63;;;-4.05;100.00
8398;BME280;4236;54.504;9.588;2024-01-10T05:08:59;103536.88;;;-4.01;100.00
8398;BME280;4236;54.504;9.588;2024-01-10T05:11:26;103531.59;;;-3.98;100.00
8398;BME280;4236;54.504;9.588;2024-01-10T05:13:54;103526.31;;;-3.95;100.00
8398;BME280;4236;54.504;9.588;2024-01-10T05:16:22;103528.94;;;-3.97;100.00
8398;BME280;4236;54.504;9.588;2024-01-10T05:18:51;103529.78;;;-3.95;100.00
8398;BME280;4236;54.504;9.588;2024-01-10T05:21:19;103535.75;;;-3.91;100.00
8398;BME280;4236;54.504;9.588;2024-01-10T05:23:47;103528.72;;;-3.87;100.00
8398;BME280;4236;54.504;9.588;2024-01-10T05:26:15;103528.59;;;-3.81;100.00
8398;BME280;4236;54.504;9.588;2024-01-10T05:28:43;103528.56;;;-3.80;100.00
8398;BME280;4236;54.504;9.588;2024-01-10T05:31:11;103521.59;;;-3.79;100.00
8398;BME280;4236;54.504;9.588;2024-01-10T05:33:38;103528.50;;;-3.78;100.00
8398;BME280;4236;54.504;9.588;2024-01-10T05:36:09;103514.50;;;-3.74;100.00
8398;BME280;4236;54.504;9.588;2024-01-10T05:38:37;103518.84;;;-3.73;100.00
8398;BME280;4236;54.504;9.588;2024-01-10T05:41:06;103523.13;;;-3.71;100.00
8398;BME280;4236;54.504;9.588;2024-01-10T05:43:34;103522.22;;;-3.70;100.00
8398;BME280;4236;54.504;9.588;2024-01-10T05:46:02;103528.28;;;-3.69;100.00
8398;BME280;4236;54.504;9.588;2024-01-10T05:48:31;103523.00;;;-3.66;100.00
8398;BME280;4236;54.504;9.588;2024-01-10T05:51:00;103525.50;;;-3.62;100.00
8398;BME280;4236;54.504;9.588;2024-01-10T05:53:29;103522.84;;;-3.60;100.00
8398;BME280;4236;54.504;9.588;2024-01-10T05:55:57;103529.72;;;-3.58;100.00
8398;BME280;4236;54.504;9.588;2024-01-10T05:58:25;103534.94;;;-3.56;100.00
8398;BME280;4236;54.504;9.588;2024-01-10T06:00:53;103534.88;;;-3.55;100.00
8398;BME280;4236;54.504;9.588;2024-01-10T06:03:21;103537.41;;;-3.52;100.00
8398;BME280;4236;54.504;9.588;2024-01-10T06:05:51;103540.06;;;-3.53;100.00
8398;BME280;4236;54.504;9.588;2024-01-10T06:08:19;103530.41;;;-3.50;100.00
8398;BME280;4236;54.504;9.588;2024-01-10T06:10:48;103538.97;;;-3.45;100.00
8398;BME280;4236;54.504;9.588;2024-01-10T06:13:17;103529.34;;;-3.43;100.00
8398;BME280;4236;54.504;9.588;2024-01-10T06:15:45;103531.06;;;-3.42;100.00
8398;BME280;4236;54.504;9.588;2024-01-10T06:18:13;103527.56;;;-3.41;100.00
8398;BME280;4236;54.504;9.588;2024-01-10T06:20:41;103529.25;;;-3.38;100.00
8398;BME280;4236;54.504;9.588;2024-01-10T06:23:08;103526.66;;;-3.40;100.00
8398;BME280;4236;54.504;9.588;2024-01-10T06:25:36;103530.84;;;-3.34;100.00
8398;BME280;4236;54.504;9.588;2024-01-10T06:28:05;103519.47;;;-3.30;100.00
8398;BME280;4236;54.504;9.588;2024-01-10T06:30:33;103523.72;;;-3.26;100.00
8398;BME280;4236;54.504;9.588;2024-01-10T06:33:02;103521.84;;;-3.21;100.00
8398;BME280;4236;54.504;9.588;2024-01-10T06:35:30;103518.16;;;-3.14;100.00
8398;BME280;4236;54.504;9.588;2024-01-10T06:37:58;103524.13;;;-3.10;100.00
8398;BME280;4236;54.504;9.588;2024-01-10T06:40:26;103517.06;;;-3.05;100.00
8398;BME280;4236;54.504;9.588;2024-01-10T06:42:54;103509.94;;;-3.00;100.00
8398;BME280;4236;54.504;9.588;2024-01-10T06:45:23;103514.28;;;-2.99;100.00
8398;BME280;4236;54.504;9.588;2024-01-10T06:47:50;103511.59;;;-2.96;100.00
8398;BME280;4236;54.504;9.588;2024-01-10T06:50:18;103517.56;;;-2.93;100.00
8398;BME280;4236;54.504;9.588;2024-01-10T06:52:47;103507.94;;;-2.91;100.00
8398;BME280;4236;54.504;9.588;2024-01-10T06:55:15;103512.16;;;-2.87;100.00
8398;BME280;4236;54.504;9.588;2024-01-10T06:57:44;103509.53;;;-2.85;100.00
8398;BME280;4236;54.504;9.588;2024-01-10T07:00:13;103520.84;;;-2.85;100.00
8398;BME280;4236;54.504;9.588;2024-01-10T07:02:42;103516.31;;;-2.80;100.00
8398;BME280;4236;54.504;9.588;2024-01-10T07:05:10;103516.31;;;-2.78;100.00
8398;BME280;4236;54.504;9.588;2024-01-10T07:07:38;103508.41;;;-2.76;100.00
8398;BME280;4236;54.504;9.588;2024-01-10T07:10:06;103514.44;;;-2.74;100.00
8398;BME280;4236;54.504;9.588;2024-01-10T07:12:34;103517.81;;;-2.71;100.00
8398;BME280;4236;54.504;9.588;2024-01-10T07:15:02;103522.94;;;-2.66;100.00
8398;BME280;4236;54.504;9.588;2024-01-10T07:17:30;103520.41;;;-2.69;100.00
8398;BME280;4236;54.504;9.588;2024-01-10T07:19:59;103528.25;;;-2.71;100.00
8398;BME280;4236;54.504;9.588;2024-01-10T07:22:27;103516.06;;;-2.70;100.00
8398;BME280;4236;54.504;9.588;2024-01-10T07:24:55;103509.94;;;-2.69;100.00
8398;BME280;4236;54.504;9.588;2024-01-10T07:27:23;103523.78;;;-2.66;100.00
8398;BME280;4236;54.504;9.588;2024-01-10T07:29:51;103515.81;;;-2.61;100.00
8398;BME280;4236;54.504;9.588;2024-01-10T07:32:19;103521.81;;;-2.59;100.00
8398;BME280;4236;54.504;9.588;2024-01-10T07:34:47;103523.41;;;-2.54;100.00
8398;BME280;4236;54.504;9.588;2024-01-10T07:37:16;103513.72;;;-2.50;100.00
8398;BME280;4236;54.504;9.588;2024-01-10T07:39:47;103516.50;;;-2.55;100.00
8398;BME280;4236;54.504;9.588;2024-01-10T07:42:17;103522.47;;;-2.51;100.00
8398;BME280;4236;54.504;9.588;2024-01-10T07:44:44;103519.09;;;-2.55;100.00
8398;BME280;4236;54.504;9.588;2024-01-10T07:47:15;103521.66;;;-2.53;100.00
8398;BME280;4236;54.504;9.588;2024-01-10T07:49:42;103511.19;;;-2.53;100.00
8398;BME280;4236;54.504;9.588;2024-01-10T07:52:10;103519.78;;;-2.48;100.00
8398;BME280;4236;54.504;9.588;2024-01-10T07:54:39;103517.06;;;-2.45;100.00
8398;BME280;4236;54.504;9.588;2024-01-10T07:57:07;103521.25;;;-2.40;100.00
8398;BME280;4236;54.504;9.588;2024-01-10T07:59:35;103516.75;;;-2.35;100.00
8398;BME280;4236;54.504;9.588;2024-01-10T08:02:03;103509.66;;;-2.31;100.00
8398;BME280;4236;54.504;9.588;2024-01-10T08:04:30;103510.44;;;-2.28;100.00
8398;BME280;4236;54.504;9.588;2024-01-10T08:06:59;103500.69;;;-2.22;100.00
8398;BME280;4236;54.504;9.588;2024-01-10T08:09:28;103511.06;;;-2.19;100.00
8398;BME280;4236;54.504;9.588;2024-01-10T08:11:57;103512.69;;;-2.15;100.00
8398;BME280;4236;54.504;9.588;2024-01-10T08:14:24;103508.19;;;-2.12;100.00
8398;BME280;4236;54.504;9.588;2024-01-10T08:16:53;103502.03;;;-2.09;100.00
8398;BME280;4236;54.504;9.588;2024-01-10T08:19:21;103496.72;;;-2.06;100.00
8398;BME280;4236;54.504;9.588;2024-01-10T08:21:49;103500.03;;;-2.01;100.00
8398;BME280;4236;54.504;9.588;2024-01-10T08:24:17;103503.41;;;-1.98;100.00
8398;BME280;4236;54.504;9.588;2024-01-10T08:26:46;103496.41;;;-1.97;100.00
8398;BME280;4236;54.504;9.588;2024-01-10T08:29:17;103499.75;;;-1.94;100.00
8398;BME280;4236;54.504;9.588;2024-01-10T08:31:45;103497.91;;;-1.90;100.00
8398;BME280;4236;54.504;9.588;2024-01-10T08:34:13;103497.81;;;-1.87;100.00
8398;BME280;4236;54.504;9.588;2024-01-10T08:36:40;103496.75;;;-1.82;100.00
8398;BME280;4236;54.504;9.588;2024-01-10T08:39:08;103494.03;;;-1.79;100.00
8398;BME280;4236;54.504;9.588;2024-01-10T08:41:37;103489.47;;;-1.72;100.00
8398;BME280;4236;54.504;9.588;2024-01-10T08:44:10;103495.56;;;-1.72;100.00
8398;BME280;4236;54.504;9.588;2024-01-10T08:46:39;103497.09;;;-1.66;100.00
8398;BME280;4236;54.504;9.588;2024-01-10T08:49:07;103494.50;;;-1.66;100.00
8398;BME280;4236;54.504;9.588;2024-01-10T08:51:36;103489.91;;;-1.59;100.00
8398;BME280;4236;54.504;9.588;2024-01-10T08:54:04;103487.31;;;-1.59;100.00
8398;BME280;4236;54.504;9.588;2024-01-10T08:56:32;103486.41;;;-1.58;100.00
8398;BME280;4236;54.504;9.588;2024-01-10T08:59:01;103487.00;;;-1.50;100.00
8398;BME280;4236;54.504;9.588;2024-01-10T09:01:31;103487.69;;;-1.45;100.00
8398;BME280;4236;54.504;9.588;2024-01-10T09:04:00;103485.97;;;-1.46;100.00
8398;BME280;4236;54.504;9.588;2024-01-10T09:06:28;103488.31;;;-1.39;100.00
8398;BME280;4236;54.504;9.588;2024-01-10T09:08:57;103495.59;;;-1.47;100.00
8398;BME280;4236;54.504;9.588;2024-01-10T09:11:25;103492.91;;;-1.45;100.00
8398;BME280;4236;54.504;9.588;2024-01-10T09:13:53;103503.28;;;-1.42;100.00
8398;BME280;4236;54.504;9.588;2024-01-10T09:16:20;103499.91;;;-1.46;100.00
8398;BME280;4236;54.504;9.588;2024-01-10T09:18:48;103492.03;;;-1.44;100.00
8398;BME280;4236;54.504;9.588;2024-01-10T09:21:20;103507.41;;;-1.35;100.00
8398;BME280;4236;54.504;9.588;2024-01-10T09:23:48;103508.00;;;-1.27;100.00
8398;BME280;4236;54.504;9.588;2024-01-10T09:26:17;103509.97;;;-1.34;100.00
8398;BME280;4236;54.504;9.588;2024-01-10T09:28:45;103511.28;;;-1.22;100.00
8398;BME280;4236;54.504;9.588;2024-01-10T09:31:13;103514.56;;;-1.16;100.00
8398;BME280;4236;54.504;9.588;2024-01-10T09:33:41;103511.72;;;-1.09;100.00
8398;BME280;4236;54.504;9.588;2024-01-10T09:36:09;103508.97;;;-1.05;100.00
8398;BME280;4236;54.504;9.588;2024-01-10T09:38:38;103512.16;;;-0.97;100.00
8398;BME280;4236;54.504;9.588;2024-01-10T09:41:06;103506.63;;;-0.89;100.00
8398;BME280;4236;54.504;9.588;2024-01-10T09:43:34;103510.00;;;-0.86;100.00
8398;BME280;4236;54.504;9.588;2024-01-10T09:46:02;103508.88;;;-0.79;100.00
8398;BME280;4236;54.504;9.588;2024-01-10T09:48:31;103507.03;;;-0.77;100.00
8398;BME280;4236;54.504;9.588;2024-01-10T09:50:59;103499.28;;;-0.80;100.00
8398;BME280;4236;54.504;9.588;2024-01-10T09:53:27;103519.91;;;-0.71;100.00
8398;BME280;4236;54.504;9.588;2024-01-10T09:55:58;103506.66;;;-0.66;100.00
8398;BME280;4236;54.504;9.588;2024-01-10T09:58:27;103512.38;;;-0.57;100.00
8398;BME280;4236;54.504;9.588;2024-01-10T10:00:55;103512.16;;;-0.50;100.00
8398;BME280;4236;54.504;9.588;2024-01-10T10:03:23;103510.34;;;-0.48;100.00
8398;BME280;4236;54.504;9.588;2024-01-10T10:05:51;103524.13;;;-0.43;100.00
8398;BME280;4236;54.504;9.588;2024-01-10T10:08:19;103513.34;;;-0.36;100.00
8398;BME280;4236;54.504;9.588;2024-01-10T10:10:49;103519.19;;;-0.29;100.00
8398;BME280;4236;54.504;9.588;2024-01-10T10:13:25;103512.97;;;-0.27;100.00
8398;BME280;4236;54.504;9.588;2024-01-10T10:16:00;103507.38;;;-0.18;100.00
8398;BME280;4236;54.504;9.588;2024-01-10T10:18:28;103505.50;;;-0.14;100.00
8398;BME280;4236;54.504;9.588;2024-01-10T10:21:07;103505.94;;;-0.03;100.00
8398;BME280;4236;54.504;9.588;2024-01-10T10:23:36;103512.34;;;-0.10;100.00
8398;BME280;4236;54.504;9.588;2024-01-10T10:26:11;103497.88;;;-0.20;100.00
8398;BME280;4236;54.504;9.588;2024-01-10T10:28:42;103497.81;;;-0.19;100.00
8398;BME280;4236;54.504;9.588;2024-01-10T10:31:11;103499.09;;;-0.07;100.00
8398;BME280;4236;54.504;9.588;2024-01-10T10:33:39;103492.75;;;-0.02;100.00
8398;BME280;4236;54.504;9.588;2024-01-10T10:36:07;103492.31;;;0.09;100.00
8398;BME280;4236;54.504;9.588;2024-01-10T10:38:35;103482.63;;;0.11;100.00
8398;BME280;4236;54.504;9.588;2024-01-10T10:41:05;103488.59;;;0.15;100.00
8398;BME280;4236;54.504;9.588;2024-01-10T10:43:38;103491.53;;;0.07;100.00
8398;BME280;4236;54.504;9.588;2024-01-10T10:46:09;103494.22;;;0.06;100.00
8398;BME280;4236;54.504;9.588;2024-01-10T10:48:39;103490.28;;;0.16;100.00
8398;BME280;4236;54.504;9.588;2024-01-10T10:51:09;103485.66;;;0.22;100.00
8398;BME280;4236;54.504;9.588;2024-01-10T10:53:38;103483.16;;;0.19;100.00
8398;BME280;4236;54.504;9.588;2024-01-10T10:56:07;103490.41;;;0.34;100.00
8398;BME280;4236;54.504;9.588;2024-01-10T10:58:38;103492.91;;;0.37;100.00
8398;BME280;4236;54.504;9.588;2024-01-10T11:01:09;103491.63;;;0.26;100.00
8398;BME280;4236;54.504;9.588;2024-01-10T11:03:40;103482.66;;;0.31;100.00
8398;BME280;4236;54.504;9.588;2024-01-10T11:06:09;103480.81;;;0.33;100.00
8398;BME280;4236;54.504;9.588;2024-01-10T11:08:40;103488.25;;;0.44;100.00
8398;BME280;4236;54.504;9.588;2024-01-10T11:11:18;103481.66;;;0.54;100.00
8398;BME280;4236;54.504;9.588;2024-01-10T11:14:05;103476.28;;;0.57;100.00
8398;BME280;4236;54.504;9.588;2024-01-10T11:20:08;103481.81;;;0.71;100.00
8398;BME280;4236;54.504;9.588;2024-01-10T11:22:47;103486.59;;;0.82;100.00
8398;BME280;4236;54.504;9.588;2024-01-10T11:25:19;103482.66;;;0.92;100.00
8398;BME280;4236;54.504;9.588;2024-01-10T11:27:51;103471.75;;;0.81;100.00
8398;BME280;4236;54.504;9.588;2024-01-10T11:30:33;103475.81;;;0.88;100.00
8398;BME280;4236;54.504;9.588;2024-01-10T11:33:17;103466.91;;;0.92;100.00
8398;BME280;4236;54.504;9.588;2024-01-10T11:36:07;103465.91;;;0.94;100.00
8398;BME280;4236;54.504;9.588;2024-01-10T11:38:44;103471.06;;;0.96;100.00
8398;BME280;4236;54.504;9.588;2024-01-10T11:41:12;103466.75;;;0.95;100.00
8398;BME280;4236;54.504;9.588;2024-01-10T11:43:42;103472.72;;;0.98;100.00
8398;BME280;4236;54.504;9.588;2024-01-10T11:46:12;103467.53;;;0.97;100.00
8398;BME280;4236;54.504;9.588;2024-01-10T11:48:41;103465.63;;;1.00;100.00
8398;BME280;4236;54.504;9.588;2024-01-10T11:51:09;103460.41;;;0.99;100.00
8398;BME280;4236;54.504;9.588;2024-01-10T11:53:40;103463.31;;;0.93;100.00
8398;BME280;4236;54.504;9.588;2024-01-10T11:56:10;103462.88;;;1.03;100.00
8398;BME280;4236;54.504;9.588;2024-01-10T11:58:55;103462.91;;;1.02;100.00
8398;BME280;4236;54.504;9.588;2024-01-10T12:01:27;103465.13;;;1.11;100.00
8398;BME280;4236;54.504;9.588;2024-01-10T12:03:57;103474.44;;;1.18;100.00
8398;BME280;4236;54.504;9.588;2024-01-10T12:06:40;103467.19;;;1.23;100.00
8398;BME280;4236;54.504;9.588;2024-01-10T12:09:08;103473.91;;;1.30;100.00
8398;BME280;4236;54.504;9.588;2024-01-10T12:11:36;103465.91;;;1.32;100.00
8398;BME280;4236;54.504;9.588;2024-01-10T12:14:06;103470.34;;;1.31;100.00
8398;BME280;4236;54.504;9.588;2024-01-10T12:16:35;103467.44;;;1.37;100.00
8398;BME280;4236;54.504;9.588;2024-01-10T12:19:04;103467.31;;;1.40;100.00
8398;BME280;4236;54.504;9.588;2024-01-10T12:21:33;103467.94;;;1.45;100.00
8398;BME280;4236;54.504;9.588;2024-01-10T12:24:03;103450.25;;;1.49;100.00
8398;BME280;4236;54.504;9.588;2024-01-10T12:26:32;103451.66;;;1.37;100.00
8398;BME280;4236;54.504;9.588;2024-01-10T12:29:00;103450.00;;;1.35;100.00
8398;BME280;4236;54.504;9.588;2024-01-10T12:31:29;103451.22;;;1.28;100.00
8398;BME280;4236;54.504;9.588;2024-01-10T12:33:58;103449.59;;;1.25;100.00
8398;BME280;4236;54.504;9.588;2024-01-10T12:36:28;103447.94;;;1.23;100.00
8398;BME280;4236;54.504;9.588;2024-01-10T12:38:55;103452.00;;;1.11;100.00
8398;BME280;4236;54.504;9.588;2024-01-10T12:41:23;103450.44;;;1.07;100.00
8398;BME280;4236;54.504;9.588;2024-01-10T12:43:52;103447.94;;;1.04;100.00
8398;BME280;4236;54.504;9.588;2024-01-10T12:46:22;103451.78;;;0.97;100.00
8398;BME280;4236;54.504;9.588;2024-01-10T12:48:58;103457.03;;;0.97;100.00
8398;BME280;4236;54.504;9.588;2024-01-10T12:51:30;103452.53;;;0.99;100.00
8398;BME280;4236;54.504;9.588;2024-01-10T12:53:58;103446.59;;;0.95;100.00
8398;BME280;4236;54.504;9.588;2024-01-10T12:56:27;103449.63;;;0.86;100.00
8398;BME280;4236;54.504;9.588;2024-01-10T12:58:56;103443.53;;;0.86;100.00
8398;BME280;4236;54.504;9.588;2024-01-10T13:01:24;103448.78;;;0.86;100.00
8398;BME280;4236;54.504;9.588;2024-01-10T13:03:52;103443.38;;;0.89;100.00
8398;BME280;4236;54.504;9.588;2024-01-10T13:06:20;103443.44;;;0.87;100.00
8398;BME280;4236;54.504;9.588;2024-01-10T13:08:50;103439.81;;;0.90;100.00
8398;BME280;4236;54.504;9.588;2024-01-10T13:11:18;103446.00;;;0.89;100.00
8398;BME280;4236;54.504;9.588;2024-01-10T13:13:47;103449.50;;;0.89;100.00